Página principal
METAR-TAF:

METAR-TAF

Aeroportos :

Kuparuk, Alasca, Estados Unidos

latitude: 70-19N, longitude: 149-35W, altura: 20 m

Observação actual do tempo

O boletim foi feito há 26 minutos, às 23:45 UTC
Vento 10 kt de es-nordeste
Temperatura 8°C
Humidade 100%
Pressão 1020 hPa
Visibilidade: 11.3 km
Encobertoa uma altura de 400 ft
aguaceiros fracos de chuva,

METAR: PAKU 222345Z 07010KT 7SM R06/P6000FT -SHRA OVC004 08/08 A3012

Hora: 16:11 (00:11 UTC)


TAF: em falta

Observações e previsões do tempo de mais de 4000 aeroportos (mensagens METAR e TAF).

As estações disponíveis são os pontos amarelos e vermelhos sobre o mapa.

Mova o rato sobre o mapa para ver o nome da estação.

Depois clique no ponto para visualizar as observações e previsões meteorológicas.

Para alterar o mapa : clique nos botões verdes com uma cruz preta para aumentar o zoom; no botão verde com uma pitada de zoom; ou nas setas verdes para mapas adjacentes.


METAR-TAF: